Flight Track Log - Related Links

Times and Time Zones

All times are in EDT time to prevent confusion due to time zone crossing. See the GLA34B flight status page for this flight to view local times or setup timezone preferences in your user account.

Time Position Orientation Groundspeed Altitude Reporting Facility
EDT Latitude Longitude Course Direction KTS MPH feet Rate Location/Type
Tue 01:40:24 PM 41.8317 -103.5317 153° Southeast 163 188 8,400  Level Denver Center
Tue 01:41:26 PM 41.7750 -103.5039 160° South 181 208 10,700 2,177 Climbing Denver Center
Tue 01:42:00 PM 41.4654 -103.6000 180° South  Level FlightAware Approximate
Tue 01:42:28 PM 41.7269 -103.4944 172° South 182 209 12,900  Level Denver Center
Tue 01:43:00 PM 41.3983 -103.6000 180° South  Level FlightAware Approximate
Tue 01:43:29 PM 41.6706 -103.4969 182° South 179 206 14,800  Level Denver Center
Tue 01:44:00 PM 41.3314 -103.6016 184° South  Level FlightAware Approximate
Tue 01:44:31 PM 41.6211 -103.5031 185° South 182 209 16,000  Level Denver Center
Tue 01:45:33 PM 41.5589 -103.5175 190° South 197 227 16,000  Level Denver Center
Tue 01:46:47 PM 41.4994 -103.5347 192° South 220 253 16,000 44 Level Denver Center
Tue 01:47:50 PM 41.4183 -103.5469 186° South 227 261 16,100  Climbing Denver Center
Tue 01:48:52 PM 41.3558 -103.5494 182° South 233 268 16,000 -48 Descending Denver Center
Tue 01:49:54 PM 41.2844 -103.5497 180° South 231 266 16,000  Level Denver Center
Tue 01:50:56 PM 41.2231 -103.5531 182° South 231 266 16,000 -48 Level Denver Center
Tue 01:51:58 PM 41.1544 -103.5589 184° South 223 257 15,900  Descending Denver Center
Tue 01:52:59 PM 41.0933 -103.5664 185° South 227 261 16,000 44 Climbing Denver Center
Tue 01:54:13 PM 41.0333 -103.5725 184° South 227 261 16,000  Level Denver Center
Tue 01:55:16 PM 40.9539 -103.5803 184° South 225 259 16,000  Level Denver Center
Tue 01:56:30 PM 40.8894 -103.6039 195° South 223 257 16,000 -529 Level Denver Center
Tue 01:57:32 PM 40.8322 -103.6467 209° Southwest 215 247 14,800 -1,258 Descending Denver Center
Tue 01:58:34 PM 40.7753 -103.6936 212° Southwest 215 247 13,400 -871 Descending Denver Center
Tue 01:59:36 PM 40.7253 -103.7297 209° Southwest 215 247 13,000 -194 Descending Denver Center
Tue 02:00:38 PM 40.6711 -103.7731 211° Southwest 210 242 13,000 48 Level Denver Center
Tue 02:01:40 PM 40.6258 -103.8089 211° Southwest 205 236 13,100 48 Climbing Denver Center
Tue 02:02:42 PM 40.5711 -103.8506 210° Southwest 204 235 13,100 -48 Level Denver Center
Tue 02:03:44 PM 40.5250 -103.8861 210° Southwest 203 234 13,000  Descending Denver Center
Tue 02:04:46 PM 40.4700 -103.9283 210° Southwest 203 234 13,100 48 Climbing Denver Center
Tue 02:05:48 PM 40.4231 -103.9644 210° Southwest 204 235 13,100 -48 Level Denver Center
Tue 02:06:50 PM 40.3714 -104.0092 213° Southwest 206 237 13,000 -49 Descending Denver Center
Tue 02:07:51 PM 40.3289 -104.0436 212° Southwest 211 243 13,000 49 Level Denver Center
Tue 02:08:53 PM 40.2731 -104.0947 215° Southwest 200 230 13,100  Climbing Denver Center
Tue 02:09:55 PM 40.2372 -104.1514 230° Southwest 203 234 13,000  Descending Denver Center
Tue 02:10:57 PM 40.2064 -104.1992 230° Southwest 204 235 13,100 48 Climbing Denver Center
Tue 02:11:59 PM 40.1617 -104.2683 230° Southwest 204 235 13,100 -48 Level Denver Center
Tue 02:13:01 PM 40.1261 -104.3278 232° Southwest 206 237 13,000  Descending Denver Center
Tue 02:14:03 PM 40.0833 -104.3850 226° Southwest 206 237 13,100  Climbing Denver Center
Tue 02:14:45 PM 40.0500 -104.4167 216° Southwest 206 237 13,000 -222 Descending Denver TRACON
Tue 02:15:51 PM 40.0167 -104.4833 237° Southwest 198 228 12,700 -619 Descending Denver TRACON
Tue 02:16:51 PM 39.9833 -104.5333 229° Southwest 204 235 11,700 -800 Descending Denver TRACON
Tue 02:17:51 PM 39.9833 -104.6000 270° West 206 237 11,100 -456 Descending Denver TRACON
Tue 02:18:10 PM 39.9800 -104.6267 261° West 203 234 11,100  Level Denver Center
Tue 02:19:12 PM 39.9719 -104.7067 263° West 206 237 11,100 -485 Level Denver Center
Tue 02:20:26 PM 39.9656 -104.7794 263° West 205 236 10,000 -1,409 Descending Denver Center
Tue 02:21:41 PM 39.9386 -104.8847 252° West 225 259 7,600 -1,279 Descending Denver Center
Tue 02:22:42 PM 39.8775 -104.8786 176° South 214 246 7,100 -293 Descending Denver Center
Tue 02:23:44 PM 39.8419 -104.8319 135° Southeast 198 228 7,000 -484 Descending Denver Center
Tue 02:24:46 PM 39.8411 -104.7728 91° East 156 180 6,100 -774 Descending Denver Center
Tue 02:25:48 PM 39.8406 -104.7247 91° East 139 160 5,400 -677 Descending Denver Center
Tue 02:27:00 PM 39.8500 -104.6667 96° East  Level FlightAware Approximate
Tue 02:34:00 PM 39.8617 -104.6732 96° East  Level Estimated

Login

Don't have an account? Register now (free) for customized features, flight alerts, and more!